Aviation Digital Data Service (ADDS)

Output produced by METARs form (1113 UTC 19 February 2019)
found at http://www.aviationweather.gov/metar/data/
 
METAR text: OLBA 191100Z 24012KT 8000 FEW026 17/11 Q1022 NOSIG
Conditions at: OLBA (BEIRUT (CIV/MIL), LB) observed 1100 UTC 19 February 2019
Temperature: 17.0°C (63°F)
Dewpoint: 11.0°C (52°F) [RH = 68%]
Pressure (altimeter): 30.18 inches Hg (1022.0 mb)
Winds: from the WSW (240 degrees) at 14 MPH (12 knots; 6.2 m/s)
Visibility: 5 miles ( 8 km)
Ceiling: at least 12,000 feet AGL
Clouds: few clouds at 2600 feet AGL
Weather: no significant weather observed at this time

METAR text: OLBA 191000Z 23009KT 8000 FEW026 16/10 Q1023 NOSIG
Conditions at: OLBA (BEIRUT (CIV/MIL), LB) observed 1000 UTC 19 February 2019
Temperature: 16.0°C (61°F)
Dewpoint: 10.0°C (50°F) [RH = 68%]
Pressure (altimeter): 30.21 inches Hg (1023.0 mb)
Winds: from the SW (230 degrees) at 10 MPH (9 knots; 4.6 m/s)
Visibility: 5 miles ( 8 km)
Ceiling: at least 12,000 feet AGL
Clouds: few clouds at 2600 feet AGL
Weather: no significant weather observed at this time

METAR text: OLBA 190900Z 23009KT 8000 FEW026 16/10 Q1023 NOSIG
Conditions at: OLBA (BEIRUT (CIV/MIL), LB) observed 0900 UTC 19 February 2019
Temperature: 16.0°C (61°F)
Dewpoint: 10.0°C (50°F) [RH = 68%]
Pressure (altimeter): 30.21 inches Hg (1023.0 mb)
Winds: from the SW (230 degrees) at 10 MPH (9 knots; 4.6 m/s)
Visibility: 5 miles ( 8 km)
Ceiling: at least 12,000 feet AGL
Clouds: few clouds at 2600 feet AGL
Weather: no significant weather observed at this time

METAR text: OLBA 190800Z 25003KT 220V290 8000 FEW026 SCT080 16/07 Q1023 NOSIG
Conditions at: OLBA (BEIRUT (CIV/MIL), LB) observed 0800 UTC 19 February 2019
Temperature: 16.0°C (61°F)
Dewpoint: 7.0°C (45°F) [RH = 55%]
Pressure (altimeter): 30.21 inches Hg (1023.0 mb)
Winds: from the WSW (250 degrees) at 3 MPH (3 knots; 1.5 m/s)
Visibility: 5 miles ( 8 km)
Ceiling: at least 12,000 feet AGL
Clouds: few clouds at 2600 feet AGL
scattered clouds at 8000 feet AGL
Weather: no significant weather observed at this time

METAR text: OLBA 190700Z VRB01KT CAVOK 17/07 Q1023 NOSIG
Conditions at: OLBA (BEIRUT (CIV/MIL), LB) observed 0700 UTC 19 February 2019
Temperature: 17.0°C (63°F)
Dewpoint: 7.0°C (45°F) [RH = 52%]
Pressure (altimeter): 30.21 inches Hg (1023.0 mb)
Winds: variable direction winds at 1 MPH (1 knots; 0.5 m/s)
Visibility: 6 or more miles (10+ km)
Ceiling: ceiling and visibility are OK
Clouds: unknown
Weather: no significant weather observed at this time

METAR text: OLBA 190600Z 14006KT 9999 BKN070 13/05 Q1022 NOSIG
Conditions at: OLBA (BEIRUT (CIV/MIL), LB) observed 0600 UTC 19 February 2019
Temperature: 13.0°C (55°F)
Dewpoint: 5.0°C (41°F) [RH = 58%]
Pressure (altimeter): 30.18 inches Hg (1022.0 mb)
Winds: from the SE (140 degrees) at 7 MPH (6 knots; 3.1 m/s)
Visibility: 6 or more miles (10+ km)
Ceiling: 7000 feet AGL
Clouds: broken clouds at 7000 feet AGL
Weather: no significant weather observed at this time

METAR text: OLBA 190500Z 14007KT 9999 BKN070 12/05 Q1022 NOSIG
Conditions at: OLBA (BEIRUT (CIV/MIL), LB) observed 0500 UTC 19 February 2019
Temperature: 12.0°C (54°F)
Dewpoint: 5.0°C (41°F) [RH = 62%]
Pressure (altimeter): 30.18 inches Hg (1022.0 mb)
Winds: from the SE (140 degrees) at 8 MPH (7 knots; 3.6 m/s)
Visibility: 6 or more miles (10+ km)
Ceiling: 7000 feet AGL
Clouds: broken clouds at 7000 feet AGL
Weather: no significant weather observed at this time

METAR text: OLBA 190400Z 15009KT CAVOK 11/05 Q1022 NOSIG
Conditions at: OLBA (BEIRUT (CIV/MIL), LB) observed 0400 UTC 19 February 2019
Temperature: 11.0°C (52°F)
Dewpoint: 5.0°C (41°F) [RH = 66%]
Pressure (altimeter): 30.18 inches Hg (1022.0 mb)
Winds: from the SSE (150 degrees) at 10 MPH (9 knots; 4.6 m/s)
Visibility: 6 or more miles (10+ km)
Ceiling: ceiling and visibility are OK
Clouds: unknown
Weather: no significant weather observed at this time

METAR text: OLBA 190300Z 14007KT CAVOK 12/05 Q1022 NOSIG
Conditions at: OLBA (BEIRUT (CIV/MIL), LB) observed 0300 UTC 19 February 2019
Temperature: 12.0°C (54°F)
Dewpoint: 5.0°C (41°F) [RH = 62%]
Pressure (altimeter): 30.18 inches Hg (1022.0 mb)
Winds: from the SE (140 degrees) at 8 MPH (7 knots; 3.6 m/s)
Visibility: 6 or more miles (10+ km)
Ceiling: ceiling and visibility are OK
Clouds: unknown
Weather: no significant weather observed at this time

METAR text: OLBA 190200Z 14007KT CAVOK 12/05 Q1022 NOSIG
Conditions at: OLBA (BEIRUT (CIV/MIL), LB) observed 0200 UTC 19 February 2019
Temperature: 12.0°C (54°F)
Dewpoint: 5.0°C (41°F) [RH = 62%]
Pressure (altimeter): 30.18 inches Hg (1022.0 mb)
Winds: from the SE (140 degrees) at 8 MPH (7 knots; 3.6 m/s)
Visibility: 6 or more miles (10+ km)
Ceiling: ceiling and visibility are OK
Clouds: unknown
Weather: no significant weather observed at this time

METAR text: OLBA 190100Z 14007KT CAVOK 12/05 Q1022 NOSIG
Conditions at: OLBA (BEIRUT (CIV/MIL), LB) observed 0100 UTC 19 February 2019
Temperature: 12.0°C (54°F)
Dewpoint: 5.0°C (41°F) [RH = 62%]
Pressure (altimeter): 30.18 inches Hg (1022.0 mb)
Winds: from the SE (140 degrees) at 8 MPH (7 knots; 3.6 m/s)
Visibility: 6 or more miles (10+ km)
Ceiling: ceiling and visibility are OK
Clouds: unknown
Weather: no significant weather observed at this time

METAR text: OLBA 190000Z 14007KT CAVOK 12/06 Q1022 NOSIG
Conditions at: OLBA (BEIRUT (CIV/MIL), LB) observed 0000 UTC 19 February 2019
Temperature: 12.0°C (54°F)
Dewpoint: 6.0°C (43°F) [RH = 67%]
Pressure (altimeter): 30.18 inches Hg (1022.0 mb)
Winds: from the SE (140 degrees) at 8 MPH (7 knots; 3.6 m/s)
Visibility: 6 or more miles (10+ km)
Ceiling: ceiling and visibility are OK
Clouds: unknown
Weather: no significant weather observed at this time

METAR text: OLBA 182300Z 14007KT CAVOK 12/05 Q1022 NOSIG
Conditions at: OLBA (BEIRUT (CIV/MIL), LB) observed 2300 UTC 18 February 2019
Temperature: 12.0°C (54°F)
Dewpoint: 5.0°C (41°F) [RH = 62%]
Pressure (altimeter): 30.18 inches Hg (1022.0 mb)
Winds: from the SE (140 degrees) at 8 MPH (7 knots; 3.6 m/s)
Visibility: 6 or more miles (10+ km)
Ceiling: ceiling and visibility are OK
Clouds: unknown
Weather: no significant weather observed at this time

METAR text: OLBA 182200Z 14005KT CAVOK 12/05 Q1021 NOSIG
Conditions at: OLBA (BEIRUT (CIV/MIL), LB) observed 2200 UTC 18 February 2019
Temperature: 12.0°C (54°F)
Dewpoint: 5.0°C (41°F) [RH = 62%]
Pressure (altimeter): 30.15 inches Hg (1021.0 mb)
Winds: from the SE (140 degrees) at 6 MPH (5 knots; 2.6 m/s)
Visibility: 6 or more miles (10+ km)
Ceiling: ceiling and visibility are OK
Clouds: unknown
Weather: no significant weather observed at this time

METAR text: OLBA 182100Z 13005KT CAVOK 12/05 Q1021 NOSIG
Conditions at: OLBA (BEIRUT (CIV/MIL), LB) observed 2100 UTC 18 February 2019
Temperature: 12.0°C (54°F)
Dewpoint: 5.0°C (41°F) [RH = 62%]
Pressure (altimeter): 30.15 inches Hg (1021.0 mb)
Winds: from the SE (130 degrees) at 6 MPH (5 knots; 2.6 m/s)
Visibility: 6 or more miles (10+ km)
Ceiling: ceiling and visibility are OK
Clouds: unknown
Weather: no significant weather observed at this time

METAR text: OLBA 182000Z 13006KT CAVOK 12/06 Q1021 NOSIG
Conditions at: OLBA (BEIRUT (CIV/MIL), LB) observed 2000 UTC 18 February 2019
Temperature: 12.0°C (54°F)
Dewpoint: 6.0°C (43°F) [RH = 67%]
Pressure (altimeter): 30.15 inches Hg (1021.0 mb)
Winds: from the SE (130 degrees) at 7 MPH (6 knots; 3.1 m/s)
Visibility: 6 or more miles (10+ km)
Ceiling: ceiling and visibility are OK
Clouds: unknown
Weather: no significant weather observed at this time

METAR text: OLBA 181900Z 14007KT CAVOK 12/06 Q1021 NOSIG
Conditions at: OLBA (BEIRUT (CIV/MIL), LB) observed 1900 UTC 18 February 2019
Temperature: 12.0°C (54°F)
Dewpoint: 6.0°C (43°F) [RH = 67%]
Pressure (altimeter): 30.15 inches Hg (1021.0 mb)
Winds: from the SE (140 degrees) at 8 MPH (7 knots; 3.6 m/s)
Visibility: 6 or more miles (10+ km)
Ceiling: ceiling and visibility are OK
Clouds: unknown
Weather: no significant weather observed at this time

METAR text: OLBA 181800Z 14006KT 120V230 9999 SCT030 13/06 Q1021 NOSIG
Conditions at: OLBA (BEIRUT (CIV/MIL), LB) observed 1800 UTC 18 February 2019
Temperature: 13.0°C (55°F)
Dewpoint: 6.0°C (43°F) [RH = 62%]
Pressure (altimeter): 30.15 inches Hg (1021.0 mb)
Winds: from the SE (140 degrees) at 7 MPH (6 knots; 3.1 m/s)
Visibility: 6 or more miles (10+ km)
Ceiling: at least 12,000 feet AGL
Clouds: scattered clouds at 3000 feet AGL
Weather: no significant weather observed at this time

METAR text: OLBA 181700Z 13004KT 9999 SCT030 13/06 Q1021 NOSIG
Conditions at: OLBA (BEIRUT (CIV/MIL), LB) observed 1700 UTC 18 February 2019
Temperature: 13.0°C (55°F)
Dewpoint: 6.0°C (43°F) [RH = 62%]
Pressure (altimeter): 30.15 inches Hg (1021.0 mb)
Winds: from the SE (130 degrees) at 5 MPH (4 knots; 2.1 m/s)
Visibility: 6 or more miles (10+ km)
Ceiling: at least 12,000 feet AGL
Clouds: scattered clouds at 3000 feet AGL
Weather: no significant weather observed at this time

METAR text: OLBA 181600Z VRB02KT 9999 BKN030 14/07 Q1020 NOSIG
Conditions at: OLBA (BEIRUT (CIV/MIL), LB) observed 1600 UTC 18 February 2019
Temperature: 14.0°C (57°F)
Dewpoint: 7.0°C (45°F) [RH = 63%]
Pressure (altimeter): 30.12 inches Hg (1020.0 mb)
Winds: variable direction winds at 2 MPH (2 knots; 1.0 m/s)
Visibility: 6 or more miles (10+ km)
Ceiling: 3000 feet AGL
Clouds: broken clouds at 3000 feet AGL
Weather: no significant weather observed at this time

METAR text: OLBA 181500Z 26003KT 190V300 9999 BKN030 15/08 Q1020 NOSIG
Conditions at: OLBA (BEIRUT (CIV/MIL), LB) observed 1500 UTC 18 February 2019
Temperature: 15.0°C (59°F)
Dewpoint: 8.0°C (46°F) [RH = 63%]
Pressure (altimeter): 30.12 inches Hg (1020.0 mb)
Winds: from the W (260 degrees) at 3 MPH (3 knots; 1.5 m/s)
Visibility: 6 or more miles (10+ km)
Ceiling: 3000 feet AGL
Clouds: broken clouds at 3000 feet AGL
Weather: no significant weather observed at this time

METAR text: OLBA 181400Z 27005KT 230V290 9999 BKN030 15/07 Q1020 NOSIG
Conditions at: OLBA (BEIRUT (CIV/MIL), LB) observed 1400 UTC 18 February 2019
Temperature: 15.0°C (59°F)
Dewpoint: 7.0°C (45°F) [RH = 59%]
Pressure (altimeter): 30.12 inches Hg (1020.0 mb)
Winds: from the W (270 degrees) at 6 MPH (5 knots; 2.6 m/s)
Visibility: 6 or more miles (10+ km)
Ceiling: 3000 feet AGL
Clouds: broken clouds at 3000 feet AGL
Weather: no significant weather observed at this time

METAR text: OLBA 181300Z 27005KT 220V300 9999 SCT026 15/08 Q1020 NOSIG
Conditions at: OLBA (BEIRUT (CIV/MIL), LB) observed 1300 UTC 18 February 2019
Temperature: 15.0°C (59°F)
Dewpoint: 8.0°C (46°F) [RH = 63%]
Pressure (altimeter): 30.12 inches Hg (1020.0 mb)
Winds: from the W (270 degrees) at 6 MPH (5 knots; 2.6 m/s)
Visibility: 6 or more miles (10+ km)
Ceiling: at least 12,000 feet AGL
Clouds: scattered clouds at 2600 feet AGL
Weather: no significant weather observed at this time

METAR text: OLBA 181200Z 26005KT 220V300 9999 SCT023 15/08 Q1020 NOSIG
Conditions at: OLBA (BEIRUT (CIV/MIL), LB) observed 1200 UTC 18 February 2019
Temperature: 15.0°C (59°F)
Dewpoint: 8.0°C (46°F) [RH = 63%]
Pressure (altimeter): 30.12 inches Hg (1020.0 mb)
Winds: from the W (260 degrees) at 6 MPH (5 knots; 2.6 m/s)
Visibility: 6 or more miles (10+ km)
Ceiling: at least 12,000 feet AGL
Clouds: scattered clouds at 2300 feet AGL
Weather: no significant weather observed at this time

METAR text: OLBA 181100Z 26008KT 8000 FEW023TCU SCT028 15/06 Q1020 NOSIG
Conditions at: OLBA (BEIRUT (CIV/MIL), LB) observed 1100 UTC 18 February 2019
Temperature: 15.0°C (59°F)
Dewpoint: 6.0°C (43°F) [RH = 55%]
Pressure (altimeter): 30.12 inches Hg (1020.0 mb)
Winds: from the W (260 degrees) at 9 MPH (8 knots; 4.1 m/s)
Visibility: 5 miles ( 8 km)
Ceiling: at least 12,000 feet AGL
Clouds: few clouds at 2300 feet AGL
scattered clouds at 2800 feet AGL
Weather: no significant weather observed at this time

METAR text: OLBA 181000Z 23009KT 8000 FEW023TCU SCT028 16/06 Q1020 NOSIG
Conditions at: OLBA (BEIRUT (CIV/MIL), LB) observed 1000 UTC 18 February 2019
Temperature: 16.0°C (61°F)
Dewpoint: 6.0°C (43°F) [RH = 51%]
Pressure (altimeter): 30.12 inches Hg (1020.0 mb)
Winds: from the SW (230 degrees) at 10 MPH (9 knots; 4.6 m/s)
Visibility: 5 miles ( 8 km)
Ceiling: at least 12,000 feet AGL
Clouds: few clouds at 2300 feet AGL
scattered clouds at 2800 feet AGL
Weather: no significant weather observed at this time

METAR text: OLBA 180900Z 23007KT 5000 HZ FEW023TCU SCT028 15/06 Q1021 NOSIG
Conditions at: OLBA (BEIRUT (CIV/MIL), LB) observed 0900 UTC 18 February 2019
Temperature: 15.0°C (59°F)
Dewpoint: 6.0°C (43°F) [RH = 55%]
Pressure (altimeter): 30.15 inches Hg (1021.0 mb)
Winds: from the SW (230 degrees) at 8 MPH (7 knots; 3.6 m/s)
Visibility: 3 miles ( 5 km)
Ceiling: at least 12,000 feet AGL
Clouds: few clouds at 2300 feet AGL
scattered clouds at 2800 feet AGL
Weather: HZ  (haze)

METAR text: OLBA 180800Z 22011KT 8000 FEW023TCU SCT028 14/08 Q1021 NOSIG
Conditions at: OLBA (BEIRUT (CIV/MIL), LB) observed 0800 UTC 18 February 2019
Temperature: 14.0°C (57°F)
Dewpoint: 8.0°C (46°F) [RH = 67%]
Pressure (altimeter): 30.15 inches Hg (1021.0 mb)
Winds: from the SW (220 degrees) at 13 MPH (11 knots; 5.7 m/s)
Visibility: 5 miles ( 8 km)
Ceiling: at least 12,000 feet AGL
Clouds: few clouds at 2300 feet AGL
scattered clouds at 2800 feet AGL
Weather: no significant weather observed at this time

METAR text: OLBA 180700Z 20009KT 8000 BKN026 12/07 Q1021 NOSIG
Conditions at: OLBA (BEIRUT (CIV/MIL), LB) observed 0700 UTC 18 February 2019
Temperature: 12.0°C (54°F)
Dewpoint: 7.0°C (45°F) [RH = 71%]
Pressure (altimeter): 30.15 inches Hg (1021.0 mb)
Winds: from the SSW (200 degrees) at 10 MPH (9 knots; 4.6 m/s)
Visibility: 5 miles ( 8 km)
Ceiling: 2600 feet AGL
Clouds: broken clouds at 2600 feet AGL
Weather: no significant weather observed at this time

METAR text: OLBA 180600Z 21010KT 170V240 8000 BKN026 13/07 Q1021 NOSIG
Conditions at: OLBA (BEIRUT (CIV/MIL), LB) observed 0600 UTC 18 February 2019
Temperature: 13.0°C (55°F)
Dewpoint: 7.0°C (45°F) [RH = 67%]
Pressure (altimeter): 30.15 inches Hg (1021.0 mb)
Winds: from the SSW (210 degrees) at 12 MPH (10 knots; 5.1 m/s)
Visibility: 5 miles ( 8 km)
Ceiling: 2600 feet AGL
Clouds: broken clouds at 2600 feet AGL
Weather: no significant weather observed at this time

METAR text: OLBA 180500Z 16007KT 9999 FEW026 SCT070 11/04 Q1020 NOSIG
Conditions at: OLBA (BEIRUT (CIV/MIL), LB) observed 0500 UTC 18 February 2019
Temperature: 11.0°C (52°F)
Dewpoint: 4.0°C (39°F) [RH = 62%]
Pressure (altimeter): 30.12 inches Hg (1020.0 mb)
Winds: from the SSE (160 degrees) at 8 MPH (7 knots; 3.6 m/s)
Visibility: 6 or more miles (10+ km)
Ceiling: at least 12,000 feet AGL
Clouds: few clouds at 2600 feet AGL
scattered clouds at 7000 feet AGL
Weather: no significant weather observed at this time

METAR text: OLBA 180400Z 14006KT 9999 SCT080 11/04 Q1020 NOSIG
Conditions at: OLBA (BEIRUT (CIV/MIL), LB) observed 0400 UTC 18 February 2019
Temperature: 11.0°C (52°F)
Dewpoint: 4.0°C (39°F) [RH = 62%]
Pressure (altimeter): 30.12 inches Hg (1020.0 mb)
Winds: from the SE (140 degrees) at 7 MPH (6 knots; 3.1 m/s)
Visibility: 6 or more miles (10+ km)
Ceiling: at least 12,000 feet AGL
Clouds: scattered clouds at 8000 feet AGL
Weather: no significant weather observed at this time

METAR text: OLBA 180300Z 10004KT 9999 FEW044 11/04 Q1020 NOSIG
Conditions at: OLBA (BEIRUT (CIV/MIL), LB) observed 0300 UTC 18 February 2019
Temperature: 11.0°C (52°F)
Dewpoint: 4.0°C (39°F) [RH = 62%]
Pressure (altimeter): 30.12 inches Hg (1020.0 mb)
Winds: from the E (100 degrees) at 5 MPH (4 knots; 2.1 m/s)
Visibility: 6 or more miles (10+ km)
Ceiling: at least 12,000 feet AGL
Clouds: few clouds at 4400 feet AGL
Weather: no significant weather observed at this time

METAR text: OLBA 180200Z 14003KT 100V210 9999 FEW044 11/03 Q1020 NOSIG
Conditions at: OLBA (BEIRUT (CIV/MIL), LB) observed 0200 UTC 18 February 2019
Temperature: 11.0°C (52°F)
Dewpoint: 3.0°C (37°F) [RH = 58%]
Pressure (altimeter): 30.12 inches Hg (1020.0 mb)
Winds: from the SE (140 degrees) at 3 MPH (3 knots; 1.5 m/s)
Visibility: 6 or more miles (10+ km)
Ceiling: at least 12,000 feet AGL
Clouds: few clouds at 4400 feet AGL
Weather: no significant weather observed at this time

METAR text: OLBA 180100Z 18003KT 150V220 9999 FEW044 11/03 Q1020 NOSIG
Conditions at: OLBA (BEIRUT (CIV/MIL), LB) observed 0100 UTC 18 February 2019
Temperature: 11.0°C (52°F)
Dewpoint: 3.0°C (37°F) [RH = 58%]
Pressure (altimeter): 30.12 inches Hg (1020.0 mb)
Winds: from the S (180 degrees) at 3 MPH (3 knots; 1.5 m/s)
Visibility: 6 or more miles (10+ km)
Ceiling: at least 12,000 feet AGL
Clouds: few clouds at 4400 feet AGL
Weather: no significant weather observed at this time

METAR text: OLBA 180000Z 15008KT CAVOK 12/03 Q1020 NOSIG
Conditions at: OLBA (BEIRUT (CIV/MIL), LB) observed 0000 UTC 18 February 2019
Temperature: 12.0°C (54°F)
Dewpoint: 3.0°C (37°F) [RH = 54%]
Pressure (altimeter): 30.12 inches Hg (1020.0 mb)
Winds: from the SSE (150 degrees) at 9 MPH (8 knots; 4.1 m/s)
Visibility: 6 or more miles (10+ km)
Ceiling: ceiling and visibility are OK
Clouds: unknown
Weather: no significant weather observed at this time

Forecast for: OLBA (BEIRUT (CIV/MIL), LB)
Text: TAF OLBA 191000Z 1912/2018 24013KT 8000 SCT026 SCT080
Forecast period: 1200 to 1600 UTC 19 February 2019
Forecast type: FROM: standard forecast or significant change
Winds: from the WSW (240 degrees) at 15 MPH (13 knots; 6.7 m/s)
Visibility: 5 miles (8 km)
Ceiling: at least 12,000 feet AGL
Clouds: scattered clouds at 2600 feet AGL
scattered clouds at 8000 feet AGL
Weather: no significant weather forecast for this period
Text: BECMG 1916/1918 17008KT BKN026
Forecast period: 1600 UTC 19 February 2019 to 0600 UTC 20 February 2019
Forecast type: BECOMING: Conditions expected to become as follows by 1800 UTC 19 February 2019
Winds: from the S (170 degrees) at 9 MPH (8 knots; 4.1 m/s)
Visibility: 5 miles (8 km)
Ceiling: 2600 feet AGL
Clouds: broken clouds at 2600 feet AGL
Weather: no significant weather forecast for this period
Text: PROB30
Forecast period: 1600 UTC 19 February 2019 to 1800 UTC 20 February 2019
Forecast type: TEMPORARY: The following changes expected for less than half the time period
Visibility: missing
Ceiling: unknown
Clouds: missing
Weather: RA  (moderate rain)
Text: TEMPO 1916/2018 RA
Forecast period: 0600 to 1800 UTC 20 February 2019
Forecast type: BECOMING: Conditions expected to become as follows by 0800 UTC 20 February 2019
Winds: from the SW (220 degrees) at 17 MPH (15 knots; 7.7 m/s)
Visibility: 5 miles (8 km)
Ceiling: 2600 feet AGL
Clouds: broken clouds at 2600 feet AGL
Weather: no significant weather forecast for this period